Etusivu
METAR-TAF:

METAR-TAF

Lentoasemat :

Maarianhaminan lentoasema

Maarianhamina, Suomi

Leveyspiiri: 60-07N, Pituuspiiri: 019-54E, korkeus merenpinnasta: 6 m

Tämänhetkinen sää

Tämä raportti tehtiin 36 minuuttia sitten, kello 22.50 UTC
Tuuli 6 kn pohjoisesta, vaihdellen luoteen ja idän/koillisen välillä
Lämpötila 2°C
Kosteus 80%
Ilmanpaine 1034 hPa
Näkyvyys 10 km tai enemmän
Pilvistä 1300 ft:n korkeudessa

METAR: EFMA 202250Z AUTO 01006KT 320V070 9999 OVC013 02/M01 Q1034

Aika: 01:26 (23:26 UTC)

Sääennuste

Tämä raportti tehtiin 1 tunti ja 45 minuuttia sitten, kello 21.41 UTC
Ennuste voimassa 20. päivästä klo 21 UTC - 21. päivään klo 06 UTC
Tuuli 5 kn idästä/koillisesta
Näkyvyys 10 km tai enemmän
Hajonneita pilviä 1500 ft:n korkeudessa
Ajoittain
20. päivästä klo 21 UTC - 21. päivään klo 06 UTC
Näkyvyys: 6000 m
Hajonneita pilviä 1000 ft:n korkeudessa

TAF: EFMA 202141Z 2021/2106 07005KT 9999 BKN015 TEMPO 2021/2106 6000 BKN010

Säähavainnot ja -ennusteet yli 4000 lentoasemalta (METAR- ja TAF-raportit).

Käytössä olevat sääasemat on merkitty karttaan keltaisilla ja punaisilla pisteillä.

Aseta hiiri pisteen päälle nähdäksesi sääaseman nimen.

Klikkaa sitten nähdäksesi säähavainnot ja -ennusteet.

Kartan vaihtaminen: klikkaa mustalla rastilla varustettuja vihreitä pisteitä, niin voit zoomata sisään; viivalla varustettua vihreää pistettä, niin voit zoomata ulos tai vihreitä nuolia, niin pääset viereisille kartoille.


METAR-TAF: